Time;durP1;ratioP1;P1;durP2;ratioP2;P2;SDS_P1;SDS_P2;PMS_P1;PMS_P2;Temp;Humidity;BMP_temperature;BMP_pressure;BME280_temperature;BME280_humidity;BME280_pressure;Samples;Min_cycle;Max_cycle;Signal;HPM_P1;HPM_P2
2024/04/07 00:02:41;;;;;;;2.50;2.20;;;19.90;55.00;22.20;101211.00;;;;21019693;28;20497;-39
2024/04/07 00:12:41;;;;;;;2.63;2.10;;;19.80;55.20;22.10;101206.00;;;;21011050;28;20274;-39
2024/04/07 00:22:45;;;;;;;2.97;2.33;;;19.70;55.30;21.90;101212.00;;;;21034264;28;20319;-38
2024/04/07 00:32:45;;;;;;;2.10;1.92;;;19.60;55.40;21.80;101210.00;;;;21034516;28;20278;-39
2024/04/07 00:42:48;;;;;;;4.73;4.33;;;19.50;55.50;21.70;101175.00;;;;21013328;28;20043;-39
2024/04/07 00:52:49;;;;;;;7.50;6.80;;;19.40;55.50;21.60;101169.00;;;;21032252;28;20162;-41
2024/04/07 01:02:50;;;;;;;9.68;5.82;;;19.20;55.60;21.40;101158.00;;;;21028430;28;20071;-41
2024/04/07 01:12:52;;;;;;;5.85;5.15;;;19.10;55.70;21.30;101155.00;;;;21012012;28;20528;-41
2024/04/07 01:22:53;;;;;;;5.63;3.42;;;19.00;55.70;21.20;101151.00;;;;21026445;28;20055;-40
2024/04/07 01:32:54;;;;;;;4.22;3.88;;;18.90;55.80;21.00;101155.00;;;;21045029;28;20078;-40
2024/04/07 01:42:55;;;;;;;3.58;3.25;;;18.80;55.90;21.00;101142.00;;;;21037027;28;20041;-40
2024/04/07 01:52:56;;;;;;;2.55;2.35;;;18.70;56.10;20.90;101114.00;;;;21045250;28;20138;-40
2024/04/07 02:02:57;;;;;;;2.55;2.35;;;18.60;56.10;20.80;101107.00;;;;21040615;28;20039;-40
2024/04/07 02:12:58;;;;;;;2.20;2.07;;;18.50;56.20;20.70;101095.00;;;;21019198;28;20048;-40
2024/04/07 02:23:01;;;;;;;1.95;1.80;;;18.40;56.20;20.60;101105.00;;;;21025522;28;20420;-40
2024/04/07 02:33:04;;;;;;;7.55;1.50;;;18.40;56.40;20.60;101094.00;;;;21036326;28;20036;-40
2024/04/07 02:43:06;;;;;;;2.75;2.47;;;18.30;56.50;20.50;101091.00;;;;21012953;28;20684;-40
2024/04/07 02:53:07;;;;;;;1.85;1.73;;;18.30;56.60;20.50;101077.00;;;;21021713;28;20040;-40
2024/04/07 03:03:08;;;;;;;2.20;1.67;;;18.20;56.60;20.40;101090.00;;;;21026502;28;20081;-40
2024/04/07 03:13:09;;;;;;;1.65;1.55;;;18.10;56.60;20.40;101075.00;;;;21024209;28;20036;-40
2024/04/07 03:23:11;;;;;;;1.93;1.83;;;18.10;56.70;20.40;101112.00;;;;21014231;28;20040;-40
2024/04/07 03:33:12;;;;;;;1.73;1.63;;;18.10;56.80;20.30;101090.00;;;;20984081;28;20297;-40
2024/04/07 03:43:16;;;;;;;4.73;2.00;;;18.10;56.80;20.30;101086.00;;;;21011162;28;20055;-40
2024/04/07 03:53:16;;;;;;;1.77;1.67;;;18.00;56.80;20.20;101070.00;;;;21035259;28;20282;-40
2024/04/07 04:03:20;;;;;;;1.57;1.47;;;18.00;56.80;20.10;101060.00;;;;21024972;28;20060;-40
2024/04/07 04:13:20;;;;;;;1.92;1.83;;;17.90;56.80;20.00;101057.00;;;;20983539;28;20660;-41
2024/04/07 04:23:21;;;;;;;2.07;1.83;;;17.80;56.90;19.90;101062.00;;;;20962201;28;20036;-40
2024/04/07 04:33:23;;;;;;;1.73;1.63;;;17.70;56.90;19.80;101048.00;;;;20968584;28;20911;-40
2024/04/07 04:43:24;;;;;;;3.15;1.60;;;17.60;56.90;19.70;101047.00;;;;20949287;28;20037;-40
2024/04/07 04:53:26;;;;;;;1.90;1.60;;;17.50;56.90;19.60;101033.00;;;;20943652;28;20061;-40
2024/04/07 05:03:28;;;;;;;2.03;1.85;;;17.40;57.00;19.50;101055.00;;;;20958567;28;20143;-40
2024/04/07 05:13:29;;;;;;;1.65;1.48;;;17.30;57.10;19.50;101065.00;;;;21017905;28;20055;-40
2024/04/07 05:23:29;;;;;;;1.33;1.30;;;17.30;57.20;19.50;101072.00;;;;21016424;28;20051;-40
2024/04/07 05:33:31;;;;;;;1.67;1.58;;;17.30;57.30;19.60;101094.00;;;;21031861;28;20094;-40
2024/04/07 05:43:35;;;;;;;2.80;1.88;;;17.30;57.50;19.70;101102.00;;;;21030695;28;20086;-40
2024/04/07 05:53:36;;;;;;;1.85;1.75;;;17.40;58.10;20.00;101150.00;;;;21000401;28;20481;-40
2024/04/07 06:03:37;;;;;;;2.17;2.07;;;17.60;58.50;20.50;101191.00;;;;21035319;28;20417;-40
2024/04/07 06:13:37;;;;;;;2.10;1.90;;;17.80;59.00;21.10;101177.00;;;;20964988;28;20282;-40
2024/04/07 06:23:41;;;;;;;2.30;2.20;;;18.30;59.80;21.80;101178.00;;;;20959869;28;20289;-40
2024/04/07 06:33:42;;;;;;;2.42;2.22;;;18.90;60.10;22.50;101180.00;;;;20954509;28;20294;-40
2024/04/07 06:43:43;;;;;;;2.42;2.22;;;19.50;59.90;23.10;101211.00;;;;20957632;28;20032;-41
2024/04/07 06:53:44;;;;;;;2.80;2.60;;;20.10;59.70;23.80;101195.00;;;;20940923;28;20075;-38
2024/04/07 07:03:47;;;;;;;2.00;1.90;;;20.80;59.40;24.40;101216.00;;;;20938755;28;20044;-38
2024/04/07 07:13:53;;;;;;;2.70;2.50;;;21.30;59.00;25.00;101231.00;;;;20927098;28;20037;-39
2024/04/07 07:23:55;;;;;;;2.08;1.98;;;21.90;58.30;25.40;101275.00;;;;20948138;28;20052;-38
2024/04/07 07:33:55;;;;;;;2.47;2.38;;;22.30;57.90;25.70;101294.00;;;;20937857;28;20068;-38
2024/04/07 07:43:57;;;;;;;4.87;4.47;;;22.70;57.60;26.10;101296.00;;;;20930747;28;20750;-38
2024/04/07 07:53:58;;;;;;;20.73;19.23;;;23.00;57.20;26.50;101308.00;;;;20949180;28;20668;-39
2024/04/07 08:03:59;;;;;;;20.55;19.05;;;23.40;57.10;26.80;101333.00;;;;20935909;28;20065;-39
2024/04/07 08:13:59;;;;;;;21.30;19.70;;;23.70;56.50;27.20;101355.00;;;;20940711;28;20043;-39
2024/04/07 08:24:03;;;;;;;12.40;11.67;;;24.00;56.10;27.80;101347.00;;;;20922683;28;20041;-38
2024/04/07 08:34:04;;;;;;;3.55;1.50;;;24.30;55.40;28.40;101380.00;;;;20924042;28;20041;-39
2024/04/07 08:44:06;;;;;;;1.80;1.67;;;24.70;54.90;28.90;101356.00;;;;20937910;28;20483;-40
2024/04/07 08:54:08;;;;;;;2.05;1.52;;;25.20;54.50;29.30;101393.00;;;;20910144;28;20151;-39
2024/04/07 09:04:12;;;;;;;9.68;1.83;;;25.60;52.60;29.60;101441.00;;;;20924036;28;20036;-40
2024/04/07 09:14:13;;;;;;;2.08;1.50;;;25.90;51.70;29.60;101441.00;;;;20943041;28;20044;-39
2024/04/07 09:24:15;;;;;;;2.53;1.50;;;26.10;49.80;29.60;101470.00;;;;20946066;28;20047;-39
2024/04/07 09:34:16;;;;;;;5.93;1.10;;;26.10;50.00;29.60;101474.00;;;;20943915;28;20044;-40
2024/04/07 09:44:20;;;;;;;1.75;1.50;;;26.20;50.30;29.70;101482.00;;;;20951197;28;20047;-40
2024/04/07 13:36:20;;;;;;;1.30;1.20;;;30.20;46.50;33.50;101507.00;;;;20978569;28;20137;-41
2024/04/07 22:20:23;;;;;;;3.15;2.80;;;22.10;51.30;24.20;101259.00;;;;20977673;28;20526;-38
2024/04/07 22:30:24;;;;;;;2.35;1.80;;;22.00;50.90;24.20;101256.00;;;;21023168;28;20610;-38
2024/04/07 22:40:24;;;;;;;3.28;2.22;;;22.00;51.10;24.10;101221.00;;;;21006698;28;20040;-39
2024/04/07 22:50:25;;;;;;;3.80;1.92;;;21.90;51.20;24.00;101230.00;;;;21017845;28;20074;-38
2024/04/07 23:00:26;;;;;;;8.27;3.00;;;21.80;51.20;24.00;101220.00;;;;21015268;28;20028;-38
2024/04/07 23:10:29;;;;;;;2.75;2.03;;;21.80;51.40;23.90;101222.00;;;;21049997;28;20040;-38
2024/04/07 23:20:30;;;;;;;2.38;1.90;;;21.70;51.50;23.80;101192.00;;;;21018520;28;20145;-38
2024/04/07 23:30:34;;;;;;;2.63;1.83;;;21.70;51.60;23.80;101201.00;;;;21023646;28;20055;-38
2024/04/07 23:40:34;;;;;;;5.32;2.35;;;21.60;51.70;23.60;101146.00;;;;20993180;28;20648;-38
2024/04/07 23:50:35;;;;;;;2.03;1.83;;;21.50;51.70;23.50;101134.00;;;;20994795;28;20273;-38
